createdAt,value
2023-02-23T00:02:05.665Z,47.33
2023-02-23T00:04:33.944Z,48.85
2023-02-23T00:07:00.824Z,44.08
2023-02-23T00:09:35.022Z,49.45
2023-02-23T00:12:08.119Z,54.88
2023-02-23T00:14:40.532Z,51.17
2023-02-23T00:17:14.399Z,54.80
2023-02-23T00:19:43.468Z,53.83
2023-02-23T00:22:10.667Z,55.85
2023-02-23T00:24:38.743Z,60.20
2023-02-23T00:27:06.519Z,58.05
2023-02-23T00:29:39.420Z,58.65
2023-02-23T00:32:06.477Z,55.78
2023-02-23T00:34:36.510Z,65.05
2023-02-23T00:37:04.421Z,64.28
2023-02-23T00:39:31.399Z,60.03
2023-02-23T00:42:03.429Z,64.15
2023-02-23T00:44:32.504Z,66.60
2023-02-23T00:47:03.162Z,66.38
2023-02-23T00:49:30.072Z,66.60
2023-02-23T00:51:56.953Z,64.70
2023-02-23T00:54:23.911Z,67.30
2023-02-23T00:56:51.684Z,62.47
2023-02-23T00:59:19.688Z,65.80
2023-02-23T01:01:47.650Z,63.70
2023-02-23T01:04:14.625Z,63.38
2023-02-23T01:06:42.520Z,65.90
2023-02-23T01:09:14.155Z,68.30
2023-02-23T01:11:41.546Z,67.57
2023-02-23T01:14:10.441Z,65.22
2023-02-23T01:16:38.801Z,65.65
2023-02-23T01:19:06.640Z,67.38
2023-02-23T01:21:41.918Z,60.45
2023-02-23T01:24:10.362Z,68.75
2023-02-23T01:26:42.375Z,66.05
2023-02-23T01:29:14.720Z,65.40
2023-02-23T01:31:46.268Z,70.13
2023-02-23T01:34:18.794Z,64.80
2023-02-23T01:36:45.945Z,66.40
2023-02-23T01:39:17.600Z,66.70
2023-02-23T01:41:45.747Z,61.38
2023-02-23T01:44:12.594Z,72.25
2023-02-23T01:46:46.334Z,69.80
2023-02-23T01:49:28.027Z,68.03
2023-02-23T01:52:07.300Z,72.20
2023-02-23T01:54:39.988Z,66.57
2023-02-23T01:57:12.997Z,61.95
2023-02-23T01:59:44.685Z,71.95
2023-02-23T02:02:13.247Z,67.20
2023-02-23T02:04:46.486Z,71.13
2023-02-23T02:07:25.691Z,63.38
2023-02-23T02:10:11.655Z,64.90
2023-02-23T02:12:41.037Z,69.03
2023-02-23T02:15:17.071Z,69.30
2023-02-23T02:17:45.164Z,68.65
2023-02-23T02:20:42.931Z,71.68
2023-02-23T02:23:45.192Z,71.82
2023-02-23T02:26:53.598Z,70.53
2023-02-23T02:29:59.511Z,72.10
2023-02-23T02:33:03.999Z,69.90
2023-02-23T02:36:18.313Z,72.60
2023-02-23T02:39:23.298Z,70.28
2023-02-23T02:42:22.813Z,69.78
2023-02-23T02:44:52.634Z,67.25
2023-02-23T02:47:34.107Z,68.75
2023-02-23T02:50:12.407Z,62.75
2023-02-23T02:52:49.930Z,67.43
2023-02-23T02:55:35.202Z,75.38
2023-02-23T03:01:03.631Z,69.75
2023-02-23T03:04:05.051Z,69.18
2023-02-23T03:06:56.543Z,69.10
2023-02-23T03:10:10.432Z,66.03
2023-02-23T03:13:25.313Z,70.15
2023-02-23T03:16:52.786Z,73.28
2023-02-23T03:20:09.018Z,70.22
2023-02-23T03:23:12.434Z,64.15
2023-02-23T03:26:13.341Z,70.65
2023-02-23T03:29:29.942Z,70.88
2023-02-23T03:32:48.814Z,71.55
2023-02-23T03:36:16.032Z,69.93
2023-02-23T03:39:46.194Z,67.40
2023-02-23T03:42:43.324Z,63.22
2023-02-23T03:45:36.629Z,69.15
2023-02-23T03:48:28.481Z,70.32
2023-02-23T03:51:22.221Z,79.90
2023-02-23T03:54:30.898Z,71.90
2023-02-23T03:57:21.911Z,67.05
2023-02-23T04:00:16.584Z,70.97
2023-02-23T04:03:08.472Z,69.63
2023-02-23T04:05:58.526Z,66.63
2023-02-23T04:08:58.068Z,65.07
2023-02-23T04:12:08.255Z,67.10
2023-02-23T04:14:56.436Z,68.00
2023-02-23T04:17:29.973Z,66.35
2023-02-23T04:19:58.076Z,72.18
2023-02-23T04:22:26.000Z,67.50
2023-02-23T04:24:58.816Z,66.47
2023-02-23T04:27:26.198Z,70.93
2023-02-23T04:29:55.840Z,71.28
2023-02-23T04:32:23.395Z,67.90
2023-02-23T04:34:50.957Z,66.85
2023-02-23T04:37:19.055Z,62.42
2023-02-23T04:39:49.734Z,70.25
2023-02-23T04:42:18.682Z,72.00
2023-02-23T04:44:46.469Z,68.00
2023-02-23T04:47:16.821Z,64.72
2023-02-23T04:49:44.934Z,71.43
2023-02-23T04:52:12.707Z,67.93
2023-02-23T04:54:42.769Z,63.40
2023-02-23T04:57:12.550Z,66.75
2023-02-23T04:59:40.473Z,68.55
2023-02-23T05:02:09.993Z,62.97
2023-02-23T05:04:40.641Z,65.90
2023-02-23T05:07:20.182Z,63.28
2023-02-23T05:09:50.523Z,59.95
2023-02-23T05:12:24.615Z,71.47
2023-02-23T05:14:53.058Z,64.03
2023-02-23T05:17:23.916Z,90.47
2023-02-23T05:19:56.883Z,77.13
2023-02-23T05:22:32.633Z,73.13
2023-02-23T05:25:16.588Z,71.15
2023-02-23T05:27:52.536Z,59.35
2023-02-23T05:30:23.122Z,62.75
2023-02-23T05:32:59.380Z,51.50
2023-02-23T05:35:30.505Z,58.42
2023-02-23T05:38:04.034Z,63.95
2023-02-23T05:44:39.905Z,65.63
2023-02-23T05:47:31.081Z,62.63
2023-02-23T05:57:40.166Z,60.35
2023-02-23T06:03:21.743Z,71.13
2023-02-23T06:42:56.635Z,80.97
2023-02-23T06:45:27.400Z,84.75
2023-02-23T06:48:06.216Z,89.72
2023-02-23T06:50:33.476Z,81.68
2023-02-23T06:53:24.864Z,77.82
2023-02-23T07:22:22.506Z,76.03
2023-02-23T07:24:49.554Z,84.00
2023-02-23T07:27:16.752Z,82.55
2023-02-23T07:29:43.853Z,76.00
2023-02-23T07:32:58.276Z,75.18
2023-02-23T07:35:25.423Z,74.68
2023-02-23T07:37:52.978Z,76.38
2023-02-23T07:40:20.703Z,77.97
2023-02-23T07:42:47.980Z,77.35
2023-02-23T07:45:17.143Z,79.25
2023-02-23T07:47:44.659Z,83.57
2023-02-23T07:50:12.619Z,78.95
2023-02-23T07:52:43.100Z,81.30
2023-02-23T07:55:11.703Z,78.15
2023-02-23T07:57:39.544Z,77.07
2023-02-23T08:00:07.681Z,77.85
2023-02-23T08:02:40.812Z,76.65
2023-02-23T08:05:08.176Z,75.30
2023-02-23T08:07:35.322Z,76.78
2023-02-23T08:10:02.507Z,77.30
2023-02-23T08:12:29.485Z,68.68
2023-02-23T08:14:59.400Z,70.78
2023-02-23T08:17:27.517Z,69.93
2023-02-23T08:19:54.392Z,73.00
2023-02-23T08:22:21.489Z,65.43
2023-02-23T08:24:48.982Z,65.43
2023-02-23T08:27:15.989Z,76.00
2023-02-23T08:29:43.031Z,73.80
2023-02-23T08:32:10.131Z,58.58
2023-02-23T08:34:43.742Z,60.30
2023-02-23T08:37:11.471Z,65.80
2023-02-23T08:39:38.937Z,64.05
2023-02-23T08:42:06.521Z,62.28
2023-02-23T08:44:33.607Z,56.88
2023-02-23T08:47:01.243Z,69.05
2023-02-23T08:49:28.177Z,64.18
2023-02-23T08:51:55.306Z,64.13
2023-02-23T08:54:22.412Z,63.15
2023-02-23T08:56:49.732Z,60.67
2023-02-23T08:59:17.581Z,57.33
2023-02-23T09:01:46.316Z,61.88
2023-02-23T09:04:14.570Z,59.55
2023-02-23T09:06:42.912Z,55.95
2023-02-23T09:09:11.147Z,55.45
2023-02-23T09:11:39.465Z,53.90
2023-02-23T09:14:09.502Z,57.08
2023-02-23T09:16:42.964Z,56.05
2023-02-23T09:19:17.491Z,55.60
2023-02-23T09:21:52.676Z,57.00
2023-02-23T09:26:57.787Z,46.72
2023-02-23T09:29:32.576Z,49.40
2023-02-23T09:32:01.560Z,50.45
2023-02-23T09:34:32.577Z,49.83
2023-02-23T09:37:13.248Z,47.58
2023-02-23T09:39:43.692Z,48.55
2023-02-23T09:45:42.608Z,45.30
2023-02-23T09:52:35.631Z,45.70
2023-02-23T09:55:42.217Z,44.58
2023-02-23T09:58:37.066Z,48.63
2023-02-23T10:05:14.674Z,51.35
2023-02-23T10:08:19.487Z,46.42
2023-02-23T10:11:41.449Z,45.25
2023-02-23T10:15:06.987Z,48.38
2023-02-23T10:18:20.594Z,52.28
2023-02-23T10:22:12.717Z,52.10
2023-02-23T10:25:28.118Z,48.80
2023-02-23T10:28:04.891Z,53.30
2023-02-23T10:30:34.750Z,58.00
2023-02-23T10:33:39.625Z,51.47
2023-02-23T10:36:24.227Z,54.47
2023-02-23T10:39:26.660Z,52.50
2023-02-23T10:42:18.696Z,49.55
2023-02-23T10:45:25.797Z,45.72
2023-02-23T10:48:20.859Z,47.78
2023-02-23T10:51:09.262Z,45.83
2023-02-23T10:53:45.921Z,42.03
2023-02-23T10:56:21.278Z,41.55
2023-02-23T10:59:04.231Z,40.25
2023-02-23T11:02:01.088Z,34.30
2023-02-23T11:04:35.268Z,45.92
2023-02-23T11:07:16.439Z,35.92
2023-02-23T11:09:47.727Z,37.47
2023-02-23T11:12:43.151Z,36.90
2023-02-23T11:15:38.903Z,35.42
2023-02-23T11:18:22.807Z,38.03
2023-02-23T11:20:51.071Z,40.03
2023-02-23T11:23:22.377Z,39.88
2023-02-23T11:25:56.938Z,38.85
2023-02-23T11:28:44.106Z,40.20
2023-02-23T11:31:20.655Z,38.83
2023-02-23T11:33:50.022Z,42.35
2023-02-23T11:36:31.386Z,36.58
2023-02-23T11:39:24.467Z,41.72
2023-02-23T11:42:15.274Z,34.15
2023-02-23T11:44:42.290Z,36.53
2023-02-23T11:47:22.715Z,34.50
2023-02-23T11:49:51.807Z,38.17
2023-02-23T11:52:24.066Z,35.85
2023-02-23T11:55:07.848Z,37.90
2023-02-23T11:57:36.309Z,37.72
2023-02-23T12:00:25.354Z,39.03
2023-02-23T12:02:59.917Z,33.67
2023-02-23T12:05:30.152Z,42.67
2023-02-23T12:08:10.561Z,36.58
2023-02-23T12:10:57.222Z,40.08
2023-02-23T12:13:38.707Z,39.85
2023-02-23T12:16:28.056Z,37.25
2023-02-23T12:19:06.624Z,39.92
2023-02-23T12:21:43.208Z,37.03
2023-02-23T12:24:43.760Z,34.50
2023-02-23T12:27:35.590Z,34.97
2023-02-23T12:30:17.514Z,31.25
2023-02-23T12:33:02.149Z,30.05
2023-02-23T12:35:36.877Z,41.38
2023-02-23T12:38:48.756Z,29.92
2023-02-23T12:41:26.492Z,31.95
2023-02-23T12:44:07.436Z,28.05
2023-02-23T12:46:51.202Z,28.80
2023-02-23T12:49:49.199Z,38.63
2023-02-23T12:52:38.887Z,23.25
2023-02-23T12:55:12.482Z,27.63
2023-02-23T12:57:55.596Z,23.45
2023-02-23T13:00:50.385Z,23.15
2023-02-23T13:03:50.310Z,21.93
2023-02-23T13:06:35.339Z,24.38
2023-02-23T13:09:30.446Z,24.52
2023-02-23T13:12:14.879Z,25.83
2023-02-23T13:15:21.091Z,30.47
2023-02-23T13:18:11.452Z,25.33
2023-02-23T13:20:52.949Z,25.83
2023-02-23T13:23:53.562Z,28.00
2023-02-23T13:26:44.359Z,31.60
2023-02-23T13:29:40.315Z,31.02
2023-02-23T13:32:29.199Z,27.08
2023-02-23T13:35:21.942Z,29.83
2023-02-23T13:38:32.119Z,31.05
2023-02-23T13:41:17.907Z,28.30
2023-02-23T13:43:59.198Z,28.17
2023-02-23T13:46:45.940Z,34.05
2023-02-23T13:49:47.064Z,31.67
2023-02-23T13:52:41.153Z,39.55
2023-02-23T13:55:50.110Z,31.02
2023-02-23T13:58:29.213Z,32.83
2023-02-23T14:01:14.266Z,31.70
2023-02-23T14:03:52.544Z,31.05
2023-02-23T14:06:22.675Z,33.22
2023-02-23T14:09:08.928Z,36.40
2023-02-23T14:11:46.014Z,30.10
2023-02-23T14:14:33.311Z,32.42
2023-02-23T14:17:17.357Z,31.55
2023-02-23T14:20:13.272Z,30.85
2023-02-23T14:23:20.182Z,33.53
2023-02-23T14:26:08.459Z,34.53
2023-02-23T14:28:46.053Z,32.03
2023-02-23T14:31:12.988Z,32.15
2023-02-23T14:33:42.628Z,36.13
2023-02-23T14:36:21.770Z,35.25
2023-02-23T14:38:57.673Z,34.03
2023-02-23T14:41:58.751Z,41.30
2023-02-23T14:44:42.235Z,37.25
2023-02-23T14:47:15.303Z,35.03
2023-02-23T14:49:48.035Z,39.28
2023-02-23T14:52:27.228Z,42.05
2023-02-23T14:55:20.962Z,35.58
2023-02-23T14:57:49.433Z,36.08
2023-02-23T15:00:38.839Z,47.65
2023-02-23T15:03:12.054Z,37.85
2023-02-23T15:06:07.063Z,36.95
2023-02-23T15:08:44.638Z,41.55
2023-02-23T15:11:14.777Z,37.10
2023-02-23T15:13:49.917Z,41.60
2023-02-23T15:16:28.741Z,42.33
2023-02-23T15:19:33.647Z,37.10
2023-02-23T15:22:04.481Z,38.38
2023-02-23T15:24:43.114Z,35.70
2023-02-23T15:27:25.637Z,39.55
2023-02-23T15:29:55.506Z,44.90
2023-02-23T15:32:25.965Z,35.45
2023-02-23T15:34:55.964Z,35.08
2023-02-23T15:37:35.905Z,35.28
2023-02-23T15:40:14.931Z,37.25
2023-02-23T15:42:47.099Z,35.03
2023-02-23T15:45:37.598Z,33.88
2023-02-23T15:48:11.328Z,33.50
2023-02-23T15:50:50.128Z,34.65
2023-02-23T15:53:35.864Z,30.15
2023-02-23T15:56:16.056Z,27.83
2023-02-23T15:58:57.035Z,29.40
2023-02-23T16:01:31.097Z,30.45
2023-02-23T16:04:13.391Z,31.33
2023-02-23T16:07:16.272Z,30.15
2023-02-23T16:10:18.930Z,25.63
2023-02-23T16:12:51.130Z,24.60
2023-02-23T16:15:33.150Z,24.98
2023-02-23T16:18:09.992Z,24.15
2023-02-23T16:20:42.834Z,28.52
2023-02-23T16:23:34.206Z,25.67
2023-02-23T16:26:12.425Z,22.52
2023-02-23T16:28:46.288Z,22.92
2023-02-23T16:31:22.888Z,22.92
2023-02-23T16:33:59.812Z,23.00
2023-02-23T16:36:39.694Z,24.65
2023-02-23T16:39:18.377Z,19.63
2023-02-23T16:41:47.430Z,21.98
2023-02-23T16:44:21.722Z,17.77
2023-02-23T16:47:16.311Z,19.00
2023-02-23T16:49:43.205Z,21.17
2023-02-23T16:52:23.735Z,19.48
2023-02-23T16:54:53.855Z,22.50
2023-02-23T16:57:28.872Z,16.77
2023-02-23T16:59:57.476Z,19.75
2023-02-23T17:02:24.777Z,16.65
2023-02-23T17:04:58.960Z,17.35
2023-02-23T17:07:25.924Z,15.23
2023-02-23T17:09:52.821Z,18.95
2023-02-23T17:12:21.580Z,20.58
2023-02-23T17:14:49.688Z,16.95
2023-02-23T17:17:19.255Z,20.17
2023-02-23T17:19:46.946Z,23.95
2023-02-23T17:22:14.669Z,21.17
2023-02-23T17:24:44.948Z,25.08
2023-02-23T17:27:13.529Z,23.88
2023-02-23T17:29:41.550Z,23.08
2023-02-23T17:32:08.739Z,20.25
2023-02-23T17:34:36.136Z,21.98
2023-02-23T17:37:03.992Z,26.38
2023-02-23T17:39:32.383Z,50.67
2023-02-23T17:41:59.448Z,25.85
2023-02-23T17:44:26.619Z,26.58
2023-02-23T17:46:53.624Z,25.00
2023-02-23T17:49:20.658Z,23.30
2023-02-23T17:51:47.802Z,24.80
2023-02-23T17:54:15.303Z,23.42
2023-02-23T17:56:43.546Z,25.52
2023-02-23T17:59:10.587Z,23.25
2023-02-23T18:01:37.765Z,21.17
2023-02-23T18:04:04.912Z,27.60
2023-02-23T18:06:32.007Z,28.08
2023-02-23T18:09:01.063Z,26.27
2023-02-23T18:11:28.315Z,30.58
2023-02-23T18:13:55.334Z,25.88
2023-02-23T18:16:24.302Z,27.20
2023-02-23T18:18:51.416Z,27.42
2023-02-23T18:21:22.038Z,23.15
2023-02-23T18:23:51.172Z,28.05
2023-02-23T18:26:22.939Z,27.77
2023-02-23T18:28:51.087Z,27.05
2023-02-23T18:31:22.812Z,28.45
2023-02-23T18:33:52.856Z,26.83
2023-02-23T18:36:35.319Z,25.50
2023-02-23T18:39:06.112Z,34.33
2023-02-23T18:41:33.796Z,34.85
2023-02-23T18:44:04.724Z,27.50
2023-02-23T18:46:32.185Z,25.75
2023-02-23T18:48:59.777Z,28.95
2023-02-23T18:51:26.925Z,26.77
2023-02-23T18:53:54.518Z,26.42
2023-02-23T18:56:27.249Z,29.17
2023-02-23T18:58:59.081Z,27.85
2023-02-23T19:01:30.182Z,31.38
2023-02-23T19:04:01.146Z,28.20
2023-02-23T19:06:29.697Z,27.15
2023-02-23T19:08:59.862Z,23.13
2023-02-23T19:11:31.023Z,24.63
2023-02-23T19:14:03.561Z,23.75
2023-02-23T19:16:32.535Z,31.15
2023-02-23T19:19:01.013Z,28.67
2023-02-23T19:21:28.658Z,24.35
2023-02-23T19:23:57.726Z,24.88
2023-02-23T19:26:26.679Z,22.17
2023-02-23T19:28:53.974Z,22.40
2023-02-23T19:31:25.816Z,28.33
2023-02-23T19:33:56.506Z,28.75
2023-02-23T19:36:30.634Z,22.92
2023-02-23T19:39:11.079Z,24.25
2023-02-23T19:41:40.261Z,21.75
2023-02-23T19:44:08.580Z,22.98
2023-02-23T19:46:37.702Z,21.80
2023-02-23T19:49:05.225Z,24.58
2023-02-23T19:51:32.811Z,23.38
2023-02-23T19:54:00.169Z,28.80
2023-02-23T19:56:28.484Z,28.02
2023-02-23T19:59:01.015Z,23.88
2023-02-23T20:01:31.942Z,21.85
2023-02-23T20:04:06.637Z,21.35
2023-02-23T20:06:40.915Z,26.35
2023-02-23T20:09:09.160Z,22.07
2023-02-23T20:11:36.399Z,22.20
2023-02-23T20:14:05.168Z,22.42
2023-02-23T20:16:34.021Z,14.50
2023-02-23T20:19:01.629Z,14.57
2023-02-23T20:21:30.823Z,11.45
2023-02-23T20:23:59.572Z,10.75
2023-02-23T20:26:34.065Z,12.88
2023-02-23T20:29:02.961Z,12.45
2023-02-23T20:31:35.021Z,17.63
2023-02-23T20:34:06.694Z,12.38
2023-02-23T20:36:34.341Z,15.23
2023-02-23T20:39:01.619Z,13.13
2023-02-23T20:41:29.775Z,13.93
2023-02-23T20:43:57.710Z,16.30
2023-02-23T20:46:24.732Z,17.92
2023-02-23T20:48:51.713Z,11.50
2023-02-23T20:51:20.532Z,12.25
2023-02-23T20:53:48.745Z,19.98
2023-02-23T20:56:18.824Z,17.25
2023-02-23T20:58:46.528Z,18.98
2023-02-23T21:01:20.784Z,23.58
2023-02-23T21:03:51.535Z,18.90
2023-02-23T21:06:21.216Z,15.77
2023-02-23T21:08:49.800Z,14.02
2023-02-23T21:11:20.181Z,16.50
2023-02-23T21:13:47.838Z,17.35
2023-02-23T21:16:18.065Z,21.02
2023-02-23T21:18:46.109Z,17.55
2023-02-23T21:21:15.767Z,13.15
2023-02-23T21:23:43.855Z,15.00
2023-02-23T21:26:14.902Z,17.90
2023-02-23T21:28:45.371Z,14.07
2023-02-23T21:31:16.307Z,14.93
2023-02-23T21:33:45.257Z,18.38
2023-02-23T21:36:13.889Z,19.85
2023-02-23T21:38:43.878Z,15.93
2023-02-23T21:41:14.270Z,11.45
2023-02-23T21:43:47.026Z,14.73
2023-02-23T21:46:17.166Z,19.52
2023-02-23T21:48:45.431Z,15.05
2023-02-23T21:51:17.190Z,18.05
2023-02-23T21:53:47.311Z,17.75
2023-02-23T21:56:21.481Z,11.95
2023-02-23T21:58:53.408Z,16.67
2023-02-23T22:01:29.522Z,19.30
2023-02-23T22:03:59.244Z,12.95
2023-02-23T22:06:36.574Z,15.27
2023-02-23T22:09:07.585Z,16.33
2023-02-23T22:11:36.295Z,19.10
2023-02-23T22:14:10.865Z,15.88
2023-02-23T22:16:42.503Z,14.93
2023-02-23T22:19:14.432Z,13.95
2023-02-23T22:21:45.979Z,18.65
2023-02-23T22:24:19.442Z,21.58
2023-02-23T22:26:56.334Z,15.43
2023-02-23T22:29:28.340Z,19.15
2023-02-23T22:31:56.887Z,14.05
2023-02-23T22:34:25.157Z,13.30
2023-02-23T22:36:53.342Z,21.98
2023-02-23T22:39:21.451Z,19.00
2023-02-23T22:41:54.292Z,20.63
2023-02-23T22:44:26.858Z,28.08
2023-02-23T22:47:00.018Z,18.35
2023-02-23T22:49:30.661Z,19.80
2023-02-23T22:52:00.783Z,24.30
2023-02-23T22:54:32.055Z,25.42
2023-02-23T22:57:03.259Z,21.45
2023-02-23T22:59:33.623Z,22.90
2023-02-23T23:02:02.483Z,22.20
2023-02-23T23:04:35.104Z,19.35
2023-02-23T23:07:02.436Z,17.98
2023-02-23T23:09:34.204Z,18.73
2023-02-23T23:12:03.222Z,16.02
2023-02-23T23:14:33.672Z,21.67
2023-02-23T23:17:01.511Z,20.42
2023-02-23T23:19:42.319Z,22.98
2023-02-23T23:22:14.594Z,18.50
2023-02-23T23:24:46.197Z,20.65
2023-02-23T23:27:16.435Z,14.98
2023-02-23T23:29:50.224Z,18.52
2023-02-23T23:32:28.113Z,20.10
2023-02-23T23:35:01.236Z,16.48
2023-02-23T23:37:32.478Z,13.68
2023-02-23T23:40:13.875Z,14.35
2023-02-23T23:42:46.740Z,20.00
2023-02-23T23:45:20.217Z,17.23
2023-02-23T23:47:51.545Z,12.98
2023-02-23T23:50:27.337Z,18.63
2023-02-23T23:52:58.056Z,18.13
2023-02-23T23:55:32.032Z,17.95
2023-02-23T23:58:04.174Z,16.50
